sensor_id;sensor_type;location;lat;lon;timestamp;P1;durP1;ratioP1;P2;durP2;ratioP2
74632;SDS011;63139;52.018;8.552;2023-05-07T00:02:00;17.98;;;12.90;;
74632;SDS011;63139;52.018;8.552;2023-05-07T00:04:31;19.60;;;14.30;;
74632;SDS011;63139;52.018;8.552;2023-05-07T00:07:03;21.20;;;14.70;;
74632;SDS011;63139;52.018;8.552;2023-05-07T00:09:32;17.40;;;12.55;;
74632;SDS011;63139;52.018;8.552;2023-05-07T00:12:00;25.40;;;16.25;;
74632;SDS011;63139;52.018;8.552;2023-05-07T00:14:28;23.60;;;15.18;;
74632;SDS011;63139;52.018;8.552;2023-05-07T00:16:56;20.88;;;14.85;;
74632;SDS011;63139;52.018;8.552;2023-05-07T00:19:25;20.58;;;15.75;;
74632;SDS011;63139;52.018;8.552;2023-05-07T00:21:54;20.35;;;14.63;;
74632;SDS011;63139;52.018;8.552;2023-05-07T00:24:23;20.13;;;14.23;;
74632;SDS011;63139;52.018;8.552;2023-05-07T00:26:51;19.42;;;13.82;;
74632;SDS011;63139;52.018;8.552;2023-05-07T00:29:20;21.95;;;14.88;;
74632;SDS011;63139;52.018;8.552;2023-05-07T00:31:48;22.77;;;15.18;;
74632;SDS011;63139;52.018;8.552;2023-05-07T00:34:17;19.77;;;13.40;;
74632;SDS011;63139;52.018;8.552;2023-05-07T00:36:45;18.85;;;14.35;;
74632;SDS011;63139;52.018;8.552;2023-05-07T00:39:14;17.92;;;13.60;;
74632;SDS011;63139;52.018;8.552;2023-05-07T00:41:43;17.90;;;13.07;;
74632;SDS011;63139;52.018;8.552;2023-05-07T00:44:11;24.63;;;17.00;;
74632;SDS011;63139;52.018;8.552;2023-05-07T00:46:39;19.38;;;14.85;;
74632;SDS011;63139;52.018;8.552;2023-05-07T00:49:07;21.55;;;14.57;;
74632;SDS011;63139;52.018;8.552;2023-05-07T00:51:36;19.85;;;13.65;;
74632;SDS011;63139;52.018;8.552;2023-05-07T00:54:05;22.30;;;15.70;;
74632;SDS011;63139;52.018;8.552;2023-05-07T00:56:34;23.33;;;15.38;;
74632;SDS011;63139;52.018;8.552;2023-05-07T00:59:02;22.20;;;15.70;;
74632;SDS011;63139;52.018;8.552;2023-05-07T01:01:31;27.30;;;17.80;;
74632;SDS011;63139;52.018;8.552;2023-05-07T01:04:00;21.95;;;15.88;;
74632;SDS011;63139;52.018;8.552;2023-05-07T01:06:29;26.83;;;16.77;;
74632;SDS011;63139;52.018;8.552;2023-05-07T01:08:59;23.75;;;17.13;;
74632;SDS011;63139;52.018;8.552;2023-05-07T01:11:31;19.85;;;14.48;;
74632;SDS011;63139;52.018;8.552;2023-05-07T01:14:00;22.23;;;15.82;;
74632;SDS011;63139;52.018;8.552;2023-05-07T01:16:29;19.80;;;14.07;;
74632;SDS011;63139;52.018;8.552;2023-05-07T01:18:57;24.50;;;16.77;;
74632;SDS011;63139;52.018;8.552;2023-05-07T01:21:26;23.45;;;15.40;;
74632;SDS011;63139;52.018;8.552;2023-05-07T01:23:58;20.25;;;14.00;;
74632;SDS011;63139;52.018;8.552;2023-05-07T01:26:28;18.58;;;13.13;;
74632;SDS011;63139;52.018;8.552;2023-05-07T01:28:56;19.23;;;13.75;;
74632;SDS011;63139;52.018;8.552;2023-05-07T01:31:24;19.77;;;15.32;;
74632;SDS011;63139;52.018;8.552;2023-05-07T01:33:53;22.33;;;15.65;;
74632;SDS011;63139;52.018;8.552;2023-05-07T01:36:22;23.48;;;16.58;;
74632;SDS011;63139;52.018;8.552;2023-05-07T01:38:54;25.45;;;16.30;;
74632;SDS011;63139;52.018;8.552;2023-05-07T01:41:26;22.70;;;14.93;;
74632;SDS011;63139;52.018;8.552;2023-05-07T01:43:54;27.08;;;16.70;;
74632;SDS011;63139;52.018;8.552;2023-05-07T01:46:22;23.83;;;17.00;;
74632;SDS011;63139;52.018;8.552;2023-05-07T01:48:52;25.90;;;15.93;;
74632;SDS011;63139;52.018;8.552;2023-05-07T01:51:20;22.15;;;14.68;;
74632;SDS011;63139;52.018;8.552;2023-05-07T01:53:49;19.50;;;13.13;;
74632;SDS011;63139;52.018;8.552;2023-05-07T01:56:18;21.30;;;14.88;;
74632;SDS011;63139;52.018;8.552;2023-05-07T01:58:49;22.10;;;15.18;;
74632;SDS011;63139;52.018;8.552;2023-05-07T02:01:18;20.10;;;14.32;;
74632;SDS011;63139;52.018;8.552;2023-05-07T02:03:48;23.00;;;15.77;;
74632;SDS011;63139;52.018;8.552;2023-05-07T02:06:22;24.45;;;16.00;;
74632;SDS011;63139;52.018;8.552;2023-05-07T02:08:54;25.20;;;17.48;;
74632;SDS011;63139;52.018;8.552;2023-05-07T02:11:22;20.98;;;14.88;;
74632;SDS011;63139;52.018;8.552;2023-05-07T02:13:53;22.42;;;15.45;;
74632;SDS011;63139;52.018;8.552;2023-05-07T02:16:21;23.83;;;16.38;;
74632;SDS011;63139;52.018;8.552;2023-05-07T02:18:51;27.30;;;17.40;;
74632;SDS011;63139;52.018;8.552;2023-05-07T02:21:19;29.67;;;18.13;;
74632;SDS011;63139;52.018;8.552;2023-05-07T02:23:47;28.67;;;18.45;;
74632;SDS011;63139;52.018;8.552;2023-05-07T02:26:16;18.88;;;14.60;;
74632;SDS011;63139;52.018;8.552;2023-05-07T02:28:44;23.55;;;17.67;;
74632;SDS011;63139;52.018;8.552;2023-05-07T02:31:13;25.08;;;16.10;;
74632;SDS011;63139;52.018;8.552;2023-05-07T02:33:42;30.67;;;19.45;;
74632;SDS011;63139;52.018;8.552;2023-05-07T02:36:12;24.95;;;16.70;;
74632;SDS011;63139;52.018;8.552;2023-05-07T02:38:49;26.95;;;17.42;;
74632;SDS011;63139;52.018;8.552;2023-05-07T02:41:18;25.52;;;17.02;;
74632;SDS011;63139;52.018;8.552;2023-05-07T02:43:46;27.17;;;17.67;;
74632;SDS011;63139;52.018;8.552;2023-05-07T02:46:16;24.92;;;16.77;;
74632;SDS011;63139;52.018;8.552;2023-05-07T02:48:49;25.67;;;16.95;;
74632;SDS011;63139;52.018;8.552;2023-05-07T02:51:19;22.83;;;15.55;;
74632;SDS011;63139;52.018;8.552;2023-05-07T02:53:52;24.95;;;16.42;;
74632;SDS011;63139;52.018;8.552;2023-05-07T02:56:21;24.48;;;16.70;;
74632;SDS011;63139;52.018;8.552;2023-05-07T02:58:49;25.63;;;17.17;;
74632;SDS011;63139;52.018;8.552;2023-05-07T03:01:21;24.98;;;17.15;;
74632;SDS011;63139;52.018;8.552;2023-05-07T03:03:56;23.40;;;15.73;;
74632;SDS011;63139;52.018;8.552;2023-05-07T03:06:24;27.90;;;18.92;;
74632;SDS011;63139;52.018;8.552;2023-05-07T03:08:52;24.90;;;15.88;;
74632;SDS011;63139;52.018;8.552;2023-05-07T03:11:20;29.15;;;18.42;;
74632;SDS011;63139;52.018;8.552;2023-05-07T03:13:48;23.15;;;17.13;;
74632;SDS011;63139;52.018;8.552;2023-05-07T03:16:19;26.55;;;18.20;;
74632;SDS011;63139;52.018;8.552;2023-05-07T03:18:48;23.30;;;16.48;;
74632;SDS011;63139;52.018;8.552;2023-05-07T03:21:16;25.30;;;16.70;;
74632;SDS011;63139;52.018;8.552;2023-05-07T03:23:44;21.83;;;15.52;;
74632;SDS011;63139;52.018;8.552;2023-05-07T03:26:13;26.15;;;16.45;;
74632;SDS011;63139;52.018;8.552;2023-05-07T03:28:42;25.73;;;17.92;;
74632;SDS011;63139;52.018;8.552;2023-05-07T03:31:13;22.80;;;15.13;;
74632;SDS011;63139;52.018;8.552;2023-05-07T03:33:50;22.58;;;16.00;;
74632;SDS011;63139;52.018;8.552;2023-05-07T03:36:19;22.88;;;15.68;;
74632;SDS011;63139;52.018;8.552;2023-05-07T03:38:48;28.00;;;16.35;;
74632;SDS011;63139;52.018;8.552;2023-05-07T03:41:19;26.15;;;18.17;;
74632;SDS011;63139;52.018;8.552;2023-05-07T03:43:48;28.35;;;17.73;;
74632;SDS011;63139;52.018;8.552;2023-05-07T03:46:16;29.27;;;18.42;;
74632;SDS011;63139;52.018;8.552;2023-05-07T03:48:44;23.58;;;15.43;;
74632;SDS011;63139;52.018;8.552;2023-05-07T03:51:15;28.45;;;18.23;;
74632;SDS011;63139;52.018;8.552;2023-05-07T03:53:43;23.35;;;16.40;;
74632;SDS011;63139;52.018;8.552;2023-05-07T03:56:11;27.45;;;17.70;;
74632;SDS011;63139;52.018;8.552;2023-05-07T03:58:40;23.75;;;15.90;;
74632;SDS011;63139;52.018;8.552;2023-05-07T04:01:10;22.95;;;14.45;;
74632;SDS011;63139;52.018;8.552;2023-05-07T04:03:38;22.77;;;15.15;;
74632;SDS011;63139;52.018;8.552;2023-05-07T04:06:07;28.55;;;18.40;;
74632;SDS011;63139;52.018;8.552;2023-05-07T04:08:37;22.73;;;15.57;;
74632;SDS011;63139;52.018;8.552;2023-05-07T04:11:06;27.88;;;17.75;;
74632;SDS011;63139;52.018;8.552;2023-05-07T04:13:36;26.77;;;17.73;;
74632;SDS011;63139;52.018;8.552;2023-05-07T04:16:06;26.00;;;17.65;;
74632;SDS011;63139;52.018;8.552;2023-05-07T04:18:36;23.30;;;16.70;;
74632;SDS011;63139;52.018;8.552;2023-05-07T04:21:04;24.05;;;15.35;;
74632;SDS011;63139;52.018;8.552;2023-05-07T04:23:37;29.45;;;18.58;;
74632;SDS011;63139;52.018;8.552;2023-05-07T04:26:09;24.00;;;16.13;;
74632;SDS011;63139;52.018;8.552;2023-05-07T04:28:40;23.10;;;15.65;;
74632;SDS011;63139;52.018;8.552;2023-05-07T04:31:09;26.73;;;17.23;;
74632;SDS011;63139;52.018;8.552;2023-05-07T04:33:38;25.10;;;15.10;;
74632;SDS011;63139;52.018;8.552;2023-05-07T04:36:09;25.10;;;17.15;;
74632;SDS011;63139;52.018;8.552;2023-05-07T04:38:54;28.55;;;18.25;;
74632;SDS011;63139;52.018;8.552;2023-05-07T04:41:22;24.00;;;15.55;;
74632;SDS011;63139;52.018;8.552;2023-05-07T04:43:50;28.40;;;16.92;;
74632;SDS011;63139;52.018;8.552;2023-05-07T04:46:21;22.27;;;14.93;;
74632;SDS011;63139;52.018;8.552;2023-05-07T04:48:52;27.95;;;17.20;;
74632;SDS011;63139;52.018;8.552;2023-05-07T04:51:20;22.85;;;15.98;;
74632;SDS011;63139;52.018;8.552;2023-05-07T04:53:48;25.63;;;16.60;;
74632;SDS011;63139;52.018;8.552;2023-05-07T04:56:18;21.75;;;15.05;;
74632;SDS011;63139;52.018;8.552;2023-05-07T04:58:47;30.50;;;19.08;;
74632;SDS011;63139;52.018;8.552;2023-05-07T05:01:18;27.98;;;19.00;;
74632;SDS011;63139;52.018;8.552;2023-05-07T05:03:46;28.05;;;18.40;;
74632;SDS011;63139;52.018;8.552;2023-05-07T05:06:14;24.33;;;17.65;;
74632;SDS011;63139;52.018;8.552;2023-05-07T05:08:42;23.15;;;16.55;;
74632;SDS011;63139;52.018;8.552;2023-05-07T05:11:11;27.00;;;18.55;;
74632;SDS011;63139;52.018;8.552;2023-05-07T05:13:41;24.20;;;16.80;;
74632;SDS011;63139;52.018;8.552;2023-05-07T05:16:14;23.88;;;16.08;;
74632;SDS011;63139;52.018;8.552;2023-05-07T05:18:43;27.50;;;18.73;;
74632;SDS011;63139;52.018;8.552;2023-05-07T05:21:13;24.00;;;16.60;;
74632;SDS011;63139;52.018;8.552;2023-05-07T05:23:43;23.35;;;15.75;;
74632;SDS011;63139;52.018;8.552;2023-05-07T05:26:14;26.65;;;17.92;;
74632;SDS011;63139;52.018;8.552;2023-05-07T05:28:43;28.58;;;17.83;;
74632;SDS011;63139;52.018;8.552;2023-05-07T05:31:12;22.58;;;15.40;;
74632;SDS011;63139;52.018;8.552;2023-05-07T05:33:40;24.25;;;16.35;;
74632;SDS011;63139;52.018;8.552;2023-05-07T05:36:09;26.67;;;17.55;;
74632;SDS011;63139;52.018;8.552;2023-05-07T05:38:38;25.40;;;16.73;;
74632;SDS011;63139;52.018;8.552;2023-05-07T05:41:08;26.17;;;17.35;;
74632;SDS011;63139;52.018;8.552;2023-05-07T05:43:36;25.77;;;18.05;;
74632;SDS011;63139;52.018;8.552;2023-05-07T05:46:05;27.15;;;17.80;;
74632;SDS011;63139;52.018;8.552;2023-05-07T05:48:35;22.77;;;15.18;;
74632;SDS011;63139;52.018;8.552;2023-05-07T05:51:04;22.77;;;15.73;;
74632;SDS011;63139;52.018;8.552;2023-05-07T05:53:32;23.50;;;16.70;;
74632;SDS011;63139;52.018;8.552;2023-05-07T05:56:01;25.67;;;16.33;;
74632;SDS011;63139;52.018;8.552;2023-05-07T05:58:30;26.88;;;18.58;;
74632;SDS011;63139;52.018;8.552;2023-05-07T06:01:02;22.27;;;15.32;;
74632;SDS011;63139;52.018;8.552;2023-05-07T06:03:34;22.92;;;15.73;;
74632;SDS011;63139;52.018;8.552;2023-05-07T06:06:06;22.05;;;15.48;;
74632;SDS011;63139;52.018;8.552;2023-05-07T06:08:34;21.38;;;14.48;;
74632;SDS011;63139;52.018;8.552;2023-05-07T06:11:03;20.27;;;15.05;;
74632;SDS011;63139;52.018;8.552;2023-05-07T06:13:34;22.48;;;14.68;;
74632;SDS011;63139;52.018;8.552;2023-05-07T06:16:03;20.30;;;15.25;;
74632;SDS011;63139;52.018;8.552;2023-05-07T06:18:31;22.50;;;14.00;;
74632;SDS011;63139;52.018;8.552;2023-05-07T06:21:02;21.35;;;14.27;;
74632;SDS011;63139;52.018;8.552;2023-05-07T06:23:33;20.50;;;13.90;;
74632;SDS011;63139;52.018;8.552;2023-05-07T06:26:03;22.50;;;15.20;;
74632;SDS011;63139;52.018;8.552;2023-05-07T06:28:36;20.63;;;14.88;;
74632;SDS011;63139;52.018;8.552;2023-05-07T06:31:12;19.13;;;13.65;;
74632;SDS011;63139;52.018;8.552;2023-05-07T06:33:48;19.77;;;14.35;;
74632;SDS011;63139;52.018;8.552;2023-05-07T06:36:17;19.45;;;14.63;;
74632;SDS011;63139;52.018;8.552;2023-05-07T06:38:45;18.70;;;13.25;;
74632;SDS011;63139;52.018;8.552;2023-05-07T06:41:14;23.23;;;14.48;;
74632;SDS011;63139;52.018;8.552;2023-05-07T06:43:43;18.20;;;13.20;;
74632;SDS011;63139;52.018;8.552;2023-05-07T06:46:31;18.05;;;12.27;;
74632;SDS011;63139;52.018;8.552;2023-05-07T06:49:01;21.20;;;13.27;;
74632;SDS011;63139;52.018;8.552;2023-05-07T06:51:29;19.13;;;13.93;;
74632;SDS011;63139;52.018;8.552;2023-05-07T06:54:01;20.23;;;14.50;;
74632;SDS011;63139;52.018;8.552;2023-05-07T06:56:32;18.75;;;13.80;;
74632;SDS011;63139;52.018;8.552;2023-05-07T06:59:03;17.83;;;13.48;;
74632;SDS011;63139;52.018;8.552;2023-05-07T07:01:35;19.20;;;12.77;;
74632;SDS011;63139;52.018;8.552;2023-05-07T07:04:06;15.75;;;11.75;;
74632;SDS011;63139;52.018;8.552;2023-05-07T07:06:36;16.95;;;11.60;;
74632;SDS011;63139;52.018;8.552;2023-05-07T07:09:08;15.95;;;11.70;;
74632;SDS011;63139;52.018;8.552;2023-05-07T07:11:36;18.08;;;13.30;;
74632;SDS011;63139;52.018;8.552;2023-05-07T07:14:05;16.77;;;12.55;;
74632;SDS011;63139;52.018;8.552;2023-05-07T07:16:39;15.85;;;12.55;;
74632;SDS011;63139;52.018;8.552;2023-05-07T07:19:09;17.48;;;10.95;;
74632;SDS011;63139;52.018;8.552;2023-05-07T07:21:37;16.02;;;12.38;;
74632;SDS011;63139;52.018;8.552;2023-05-07T07:24:05;16.48;;;12.48;;
74632;SDS011;63139;52.018;8.552;2023-05-07T07:26:34;19.25;;;12.57;;
74632;SDS011;63139;52.018;8.552;2023-05-07T07:29:02;16.52;;;11.68;;
74632;SDS011;63139;52.018;8.552;2023-05-07T07:31:30;15.23;;;10.45;;
74632;SDS011;63139;52.018;8.552;2023-05-07T07:33:59;13.90;;;10.52;;
74632;SDS011;63139;52.018;8.552;2023-05-07T07:36:29;17.30;;;11.18;;
74632;SDS011;63139;52.018;8.552;2023-05-07T07:39:12;22.08;;;12.18;;
74632;SDS011;63139;52.018;8.552;2023-05-07T07:41:42;15.88;;;12.00;;
74632;SDS011;63139;52.018;8.552;2023-05-07T07:44:11;15.00;;;12.05;;
74632;SDS011;63139;52.018;8.552;2023-05-07T07:46:45;15.27;;;11.75;;
74632;SDS011;63139;52.018;8.552;2023-05-07T07:49:13;12.60;;;10.05;;
74632;SDS011;63139;52.018;8.552;2023-05-07T07:51:44;12.32;;;9.68;;
74632;SDS011;63139;52.018;8.552;2023-05-07T07:54:12;15.18;;;10.18;;
74632;SDS011;63139;52.018;8.552;2023-05-07T07:56:41;14.50;;;11.15;;
74632;SDS011;63139;52.018;8.552;2023-05-07T07:59:10;14.18;;;9.82;;
74632;SDS011;63139;52.018;8.552;2023-05-07T08:01:40;14.85;;;10.35;;
74632;SDS011;63139;52.018;8.552;2023-05-07T08:04:08;12.93;;;10.27;;
74632;SDS011;63139;52.018;8.552;2023-05-07T08:06:39;11.52;;;9.35;;
74632;SDS011;63139;52.018;8.552;2023-05-07T08:09:10;12.55;;;10.13;;
74632;SDS011;63139;52.018;8.552;2023-05-07T08:11:40;11.88;;;9.30;;
74632;SDS011;63139;52.018;8.552;2023-05-07T08:14:09;10.88;;;9.25;;
74632;SDS011;63139;52.018;8.552;2023-05-07T08:16:37;13.40;;;9.65;;
74632;SDS011;63139;52.018;8.552;2023-05-07T08:19:06;10.82;;;8.80;;
74632;SDS011;63139;52.018;8.552;2023-05-07T08:21:34;11.52;;;8.02;;
74632;SDS011;63139;52.018;8.552;2023-05-07T08:24:02;16.02;;;10.45;;
74632;SDS011;63139;52.018;8.552;2023-05-07T08:26:32;9.55;;;7.85;;
74632;SDS011;63139;52.018;8.552;2023-05-07T08:29:02;11.25;;;8.77;;
74632;SDS011;63139;52.018;8.552;2023-05-07T08:31:30;13.52;;;9.43;;
74632;SDS011;63139;52.018;8.552;2023-05-07T08:33:58;10.55;;;8.77;;
74632;SDS011;63139;52.018;8.552;2023-05-07T08:36:27;10.10;;;8.30;;
74632;SDS011;63139;52.018;8.552;2023-05-07T08:38:56;9.45;;;8.00;;
74632;SDS011;63139;52.018;8.552;2023-05-07T08:41:24;11.88;;;9.15;;
74632;SDS011;63139;52.018;8.552;2023-05-07T08:43:54;9.88;;;8.50;;
74632;SDS011;63139;52.018;8.552;2023-05-07T08:46:26;11.68;;;8.43;;
74632;SDS011;63139;52.018;8.552;2023-05-07T08:48:59;11.70;;;8.60;;
74632;SDS011;63139;52.018;8.552;2023-05-07T08:51:27;9.40;;;7.80;;
74632;SDS011;63139;52.018;8.552;2023-05-07T08:53:55;9.98;;;8.65;;
74632;SDS011;63139;52.018;8.552;2023-05-07T08:56:28;11.20;;;8.32;;
74632;SDS011;63139;52.018;8.552;2023-05-07T08:58:58;12.40;;;8.32;;
74632;SDS011;63139;52.018;8.552;2023-05-07T09:01:28;9.48;;;7.63;;
74632;SDS011;63139;52.018;8.552;2023-05-07T09:03:56;10.75;;;8.45;;
74632;SDS011;63139;52.018;8.552;2023-05-07T09:06:27;11.65;;;8.73;;
74632;SDS011;63139;52.018;8.552;2023-05-07T09:08:56;12.35;;;9.07;;
74632;SDS011;63139;52.018;8.552;2023-05-07T09:11:27;10.60;;;8.70;;
74632;SDS011;63139;52.018;8.552;2023-05-07T09:14:00;12.15;;;8.10;;
74632;SDS011;63139;52.018;8.552;2023-05-07T09:16:34;9.57;;;6.82;;
74632;SDS011;63139;52.018;8.552;2023-05-07T09:19:03;11.25;;;8.32;;
74632;SDS011;63139;52.018;8.552;2023-05-07T09:21:31;8.68;;;7.15;;
74632;SDS011;63139;52.018;8.552;2023-05-07T09:24:02;9.25;;;7.38;;
74632;SDS011;63139;52.018;8.552;2023-05-07T09:26:37;9.67;;;7.37;;
74632;SDS011;63139;52.018;8.552;2023-05-07T09:29:09;10.60;;;8.55;;
74632;SDS011;63139;52.018;8.552;2023-05-07T09:31:39;8.60;;;7.13;;
74632;SDS011;63139;52.018;8.552;2023-05-07T09:34:10;10.60;;;8.32;;
74632;SDS011;63139;52.018;8.552;2023-05-07T09:36:42;8.57;;;6.90;;
74632;SDS011;63139;52.018;8.552;2023-05-07T09:39:10;10.02;;;7.72;;
74632;SDS011;63139;52.018;8.552;2023-05-07T09:41:45;9.10;;;6.95;;
74632;SDS011;63139;52.018;8.552;2023-05-07T09:44:23;9.25;;;7.70;;
74632;SDS011;63139;52.018;8.552;2023-05-07T09:46:53;8.98;;;7.45;;
74632;SDS011;63139;52.018;8.552;2023-05-07T09:49:30;10.02;;;7.75;;
74632;SDS011;63139;52.018;8.552;2023-05-07T09:52:06;9.75;;;8.10;;
74632;SDS011;63139;52.018;8.552;2023-05-07T09:54:40;8.75;;;7.45;;
74632;SDS011;63139;52.018;8.552;2023-05-07T09:57:12;8.68;;;7.20;;
74632;SDS011;63139;52.018;8.552;2023-05-07T09:59:45;11.45;;;8.05;;
74632;SDS011;63139;52.018;8.552;2023-05-07T10:02:17;8.60;;;7.63;;
74632;SDS011;63139;52.018;8.552;2023-05-07T10:04:50;10.85;;;7.90;;
74632;SDS011;63139;52.018;8.552;2023-05-07T10:07:25;9.27;;;7.53;;
74632;SDS011;63139;52.018;8.552;2023-05-07T10:09:57;9.88;;;8.07;;
74632;SDS011;63139;52.018;8.552;2023-05-07T10:12:32;8.30;;;6.90;;
74632;SDS011;63139;52.018;8.552;2023-05-07T10:15:11;8.55;;;7.30;;
74632;SDS011;63139;52.018;8.552;2023-05-07T10:17:44;10.68;;;7.85;;
74632;SDS011;63139;52.018;8.552;2023-05-07T10:20:13;11.57;;;7.72;;
74632;SDS011;63139;52.018;8.552;2023-05-07T10:22:45;9.10;;;7.43;;
74632;SDS011;63139;52.018;8.552;2023-05-07T10:25:20;7.32;;;6.07;;
74632;SDS011;63139;52.018;8.552;2023-05-07T10:27:53;9.25;;;7.75;;
74632;SDS011;63139;52.018;8.552;2023-05-07T10:30:26;10.32;;;7.20;;
74632;SDS011;63139;52.018;8.552;2023-05-07T10:33:05;8.15;;;6.75;;
74632;SDS011;63139;52.018;8.552;2023-05-07T10:35:41;9.82;;;7.43;;
74632;SDS011;63139;52.018;8.552;2023-05-07T10:38:13;8.70;;;6.65;;
74632;SDS011;63139;52.018;8.552;2023-05-07T10:40:43;11.20;;;7.15;;
74632;SDS011;63139;52.018;8.552;2023-05-07T10:43:16;9.70;;;7.20;;
74632;SDS011;63139;52.018;8.552;2023-05-07T10:52:14;8.25;;;6.78;;
74632;SDS011;63139;52.018;8.552;2023-05-07T10:58:24;8.90;;;6.35;;
74632;SDS011;63139;52.018;8.552;2023-05-07T11:01:50;9.73;;;6.78;;
74632;SDS011;63139;52.018;8.552;2023-05-07T11:04:44;6.97;;;5.82;;
74632;SDS011;63139;52.018;8.552;2023-05-07T11:07:34;7.50;;;6.18;;
74632;SDS011;63139;52.018;8.552;2023-05-07T11:12:51;8.60;;;6.55;;
74632;SDS011;63139;52.018;8.552;2023-05-07T11:15:44;6.60;;;5.85;;
74632;SDS011;63139;52.018;8.552;2023-05-07T11:18:25;8.55;;;6.03;;
74632;SDS011;63139;52.018;8.552;2023-05-07T11:24:16;6.57;;;5.45;;
74632;SDS011;63139;52.018;8.552;2023-05-07T11:26:50;5.30;;;4.80;;
74632;SDS011;63139;52.018;8.552;2023-05-07T11:29:21;6.03;;;5.22;;
74632;SDS011;63139;52.018;8.552;2023-05-07T11:31:55;6.13;;;5.50;;
74632;SDS011;63139;52.018;8.552;2023-05-07T11:34:30;6.60;;;4.80;;
74632;SDS011;63139;52.018;8.552;2023-05-07T11:36:59;6.18;;;4.88;;
74632;SDS011;63139;52.018;8.552;2023-05-07T11:39:47;6.55;;;5.32;;
74632;SDS011;63139;52.018;8.552;2023-05-07T11:42:25;6.72;;;5.28;;
74632;SDS011;63139;52.018;8.552;2023-05-07T11:44:56;7.22;;;5.28;;
74632;SDS011;63139;52.018;8.552;2023-05-07T11:47:24;6.00;;;4.95;;
74632;SDS011;63139;52.018;8.552;2023-05-07T11:49:54;6.90;;;5.28;;
74632;SDS011;63139;52.018;8.552;2023-05-07T11:52:23;4.45;;;3.70;;
74632;SDS011;63139;52.018;8.552;2023-05-07T11:54:52;4.78;;;4.00;;
74632;SDS011;63139;52.018;8.552;2023-05-07T11:57:22;5.32;;;4.70;;
74632;SDS011;63139;52.018;8.552;2023-05-07T11:59:52;4.60;;;3.90;;
74632;SDS011;63139;52.018;8.552;2023-05-07T12:02:20;5.72;;;4.60;;
74632;SDS011;63139;52.018;8.552;2023-05-07T12:04:51;5.57;;;4.47;;
74632;SDS011;63139;52.018;8.552;2023-05-07T12:07:21;4.63;;;4.20;;
74632;SDS011;63139;52.018;8.552;2023-05-07T12:09:51;6.07;;;4.60;;
74632;SDS011;63139;52.018;8.552;2023-05-07T12:12:21;5.72;;;4.13;;
74632;SDS011;63139;52.018;8.552;2023-05-07T12:14:49;5.35;;;4.35;;
74632;SDS011;63139;52.018;8.552;2023-05-07T12:17:17;5.55;;;4.32;;
74632;SDS011;63139;52.018;8.552;2023-05-07T12:19:45;5.55;;;5.03;;
74632;SDS011;63139;52.018;8.552;2023-05-07T12:22:14;6.70;;;5.38;;
74632;SDS011;63139;52.018;8.552;2023-05-07T12:24:44;5.43;;;4.90;;
74632;SDS011;63139;52.018;8.552;2023-05-07T12:27:13;8.32;;;4.97;;
74632;SDS011;63139;52.018;8.552;2023-05-07T12:29:43;6.80;;;4.88;;
74632;SDS011;63139;52.018;8.552;2023-05-07T12:32:13;5.45;;;4.50;;
74632;SDS011;63139;52.018;8.552;2023-05-07T12:34:42;6.15;;;5.22;;
74632;SDS011;63139;52.018;8.552;2023-05-07T12:37:11;6.05;;;5.05;;
74632;SDS011;63139;52.018;8.552;2023-05-07T12:39:46;5.57;;;4.68;;
74632;SDS011;63139;52.018;8.552;2023-05-07T12:42:15;5.80;;;5.18;;
74632;SDS011;63139;52.018;8.552;2023-05-07T12:44:45;5.90;;;4.75;;
74632;SDS011;63139;52.018;8.552;2023-05-07T12:47:14;4.70;;;4.03;;
74632;SDS011;63139;52.018;8.552;2023-05-07T12:49:42;8.07;;;4.75;;
74632;SDS011;63139;52.018;8.552;2023-05-07T12:52:12;5.45;;;4.72;;
74632;SDS011;63139;52.018;8.552;2023-05-07T12:54:41;5.78;;;5.07;;
74632;SDS011;63139;52.018;8.552;2023-05-07T12:57:10;6.88;;;5.18;;
74632;SDS011;63139;52.018;8.552;2023-05-07T12:59:39;6.32;;;5.03;;
74632;SDS011;63139;52.018;8.552;2023-05-07T13:02:08;5.70;;;4.70;;
74632;SDS011;63139;52.018;8.552;2023-05-07T13:04:39;5.10;;;4.53;;
74632;SDS011;63139;52.018;8.552;2023-05-07T13:07:07;5.32;;;4.45;;
74632;SDS011;63139;52.018;8.552;2023-05-07T13:09:35;5.88;;;4.38;;
74632;SDS011;63139;52.018;8.552;2023-05-07T13:12:03;5.50;;;4.13;;
74632;SDS011;63139;52.018;8.552;2023-05-07T13:14:34;6.85;;;4.10;;
74632;SDS011;63139;52.018;8.552;2023-05-07T13:17:02;5.13;;;4.40;;
74632;SDS011;63139;52.018;8.552;2023-05-07T13:19:30;6.43;;;4.43;;
74632;SDS011;63139;52.018;8.552;2023-05-07T13:21:58;4.88;;;4.32;;
74632;SDS011;63139;52.018;8.552;2023-05-07T13:24:26;7.07;;;4.20;;
74632;SDS011;63139;52.018;8.552;2023-05-07T13:26:54;5.53;;;4.53;;
74632;SDS011;63139;52.018;8.552;2023-05-07T13:29:23;6.93;;;5.20;;
74632;SDS011;63139;52.018;8.552;2023-05-07T13:31:56;6.22;;;4.10;;
74632;SDS011;63139;52.018;8.552;2023-05-07T13:34:25;5.25;;;4.50;;
74632;SDS011;63139;52.018;8.552;2023-05-07T13:36:53;6.47;;;4.50;;
74632;SDS011;63139;52.018;8.552;2023-05-07T13:39:21;5.22;;;4.15;;
74632;SDS011;63139;52.018;8.552;2023-05-07T13:41:49;5.05;;;4.25;;
74632;SDS011;63139;52.018;8.552;2023-05-07T13:44:17;5.97;;;4.80;;
74632;SDS011;63139;52.018;8.552;2023-05-07T13:46:45;4.65;;;4.18;;
74632;SDS011;63139;52.018;8.552;2023-05-07T13:49:15;5.57;;;4.78;;
74632;SDS011;63139;52.018;8.552;2023-05-07T13:51:43;4.82;;;4.18;;
74632;SDS011;63139;52.018;8.552;2023-05-07T13:54:11;4.95;;;4.45;;
74632;SDS011;63139;52.018;8.552;2023-05-07T13:56:39;4.68;;;4.28;;
74632;SDS011;63139;52.018;8.552;2023-05-07T13:59:08;6.43;;;5.63;;
74632;SDS011;63139;52.018;8.552;2023-05-07T14:01:36;5.22;;;4.70;;
74632;SDS011;63139;52.018;8.552;2023-05-07T14:04:04;5.47;;;4.70;;
74632;SDS011;63139;52.018;8.552;2023-05-07T14:06:34;5.68;;;5.07;;
74632;SDS011;63139;52.018;8.552;2023-05-07T14:09:02;6.07;;;5.18;;
74632;SDS011;63139;52.018;8.552;2023-05-07T14:11:30;6.50;;;5.60;;
74632;SDS011;63139;52.018;8.552;2023-05-07T14:14:01;7.43;;;5.68;;
74632;SDS011;63139;52.018;8.552;2023-05-07T14:16:29;5.97;;;4.95;;
74632;SDS011;63139;52.018;8.552;2023-05-07T14:18:57;6.32;;;5.07;;
74632;SDS011;63139;52.018;8.552;2023-05-07T14:21:25;6.10;;;5.25;;
74632;SDS011;63139;52.018;8.552;2023-05-07T14:23:55;5.75;;;5.13;;
74632;SDS011;63139;52.018;8.552;2023-05-07T14:26:24;9.18;;;6.15;;
74632;SDS011;63139;52.018;8.552;2023-05-07T14:28:53;9.52;;;7.25;;
74632;SDS011;63139;52.018;8.552;2023-05-07T14:31:23;8.27;;;6.05;;
74632;SDS011;63139;52.018;8.552;2023-05-07T14:33:52;8.48;;;6.00;;
74632;SDS011;63139;52.018;8.552;2023-05-07T14:36:20;7.25;;;6.53;;
74632;SDS011;63139;52.018;8.552;2023-05-07T14:38:49;7.15;;;5.93;;
74632;SDS011;63139;52.018;8.552;2023-05-07T14:41:18;8.27;;;6.57;;
74632;SDS011;63139;52.018;8.552;2023-05-07T14:43:47;7.32;;;6.50;;
74632;SDS011;63139;52.018;8.552;2023-05-07T14:46:17;7.28;;;6.05;;
74632;SDS011;63139;52.018;8.552;2023-05-07T14:48:45;7.45;;;6.03;;
74632;SDS011;63139;52.018;8.552;2023-05-07T14:51:13;8.65;;;6.93;;
74632;SDS011;63139;52.018;8.552;2023-05-07T14:53:41;7.95;;;6.72;;
74632;SDS011;63139;52.018;8.552;2023-05-07T14:56:10;7.55;;;6.25;;
74632;SDS011;63139;52.018;8.552;2023-05-07T14:58:39;7.60;;;6.80;;
74632;SDS011;63139;52.018;8.552;2023-05-07T15:01:07;8.90;;;7.00;;
74632;SDS011;63139;52.018;8.552;2023-05-07T15:03:36;7.95;;;6.53;;
74632;SDS011;63139;52.018;8.552;2023-05-07T15:06:04;7.85;;;6.60;;
74632;SDS011;63139;52.018;8.552;2023-05-07T15:08:33;8.25;;;6.78;;